sensor_id;sensor_type;location;lat;lon;timestamp;pressure;altitude;pressure_sealevel;temperature;humidity
31532;BME280;23787;52.180;5.288;2022-08-04T00:07:30;101120.0;;;22.1;100.0
31532;BME280;23787;52.180;5.288;2022-08-04T00:22:29;101120.0;;;22.2;100.0
31532;BME280;23787;52.180;5.288;2022-08-04T00:32:28;101110.0;;;21.9;100.0
31532;BME280;23787;52.180;5.288;2022-08-04T00:37:28;101110.0;;;21.7;100.0
31532;BME280;23787;52.180;5.288;2022-08-04T00:42:33;101090.0;;;21.9;100.0
31532;BME280;23787;52.180;5.288;2022-08-04T00:57:30;101090.0;;;21.7;100.0
31532;BME280;23787;52.180;5.288;2022-08-04T01:02:30;101090.0;;;21.8;100.0
31532;BME280;23787;52.180;5.288;2022-08-04T01:07:38;101080.0;;;21.7;100.0
31532;BME280;23787;52.180;5.288;2022-08-04T01:12:34;101080.0;;;21.6;100.0
31532;BME280;23787;52.180;5.288;2022-08-04T01:22:37;101070.0;;;21.4;100.0
31532;BME280;23787;52.180;5.288;2022-08-04T01:32:30;101070.0;;;21.3;100.0
31532;BME280;23787;52.180;5.288;2022-08-04T01:37:33;101070.0;;;21.2;100.0
31532;BME280;23787;52.180;5.288;2022-08-04T01:42:30;101070.0;;;21.3;100.0
31532;BME280;23787;52.180;5.288;2022-08-04T01:47:29;101080.0;;;21.0;100.0
31532;BME280;23787;52.180;5.288;2022-08-04T01:52:28;101080.0;;;21.2;100.0
31532;BME280;23787;52.180;5.288;2022-08-04T01:57:28;101060.0;;;21.3;100.0
31532;BME280;23787;52.180;5.288;2022-08-04T02:02:28;101060.0;;;21.1;100.0
31532;BME280;23787;52.180;5.288;2022-08-04T02:07:39;101060.0;;;21.0;100.0
31532;BME280;23787;52.180;5.288;2022-08-04T02:27:29;101050.0;;;20.7;100.0
31532;BME280;23787;52.180;5.288;2022-08-04T02:32:29;101040.0;;;20.5;100.0
31532;BME280;23787;52.180;5.288;2022-08-04T02:37:28;101050.0;;;20.4;100.0
31532;BME280;23787;52.180;5.288;2022-08-04T02:42:28;101040.0;;;20.5;100.0
31532;BME280;23787;52.180;5.288;2022-08-04T02:47:28;101040.0;;;20.6;100.0
31532;BME280;23787;52.180;5.288;2022-08-04T03:02:38;101030.0;;;20.4;100.0
31532;BME280;23787;52.180;5.288;2022-08-04T03:42:33;101020.0;;;20.2;100.0
31532;BME280;23787;52.180;5.288;2022-08-04T03:47:35;101020.0;;;20.4;100.0
31532;BME280;23787;52.180;5.288;2022-08-04T03:52:34;101020.0;;;20.2;100.0
31532;BME280;23787;52.180;5.288;2022-08-04T03:57:32;101010.0;;;20.3;100.0
31532;BME280;23787;52.180;5.288;2022-08-04T04:17:36;101020.0;;;20.1;100.0
31532;BME280;23787;52.180;5.288;2022-08-04T04:27:33;101020.0;;;20.2;100.0
31532;BME280;23787;52.180;5.288;2022-08-04T04:32:32;101040.0;;;20.1;100.0
31532;BME280;23787;52.180;5.288;2022-08-04T04:37:34;101050.0;;;20.2;100.0
31532;BME280;23787;52.180;5.288;2022-08-04T04:42:36;101040.0;;;20.6;100.0
31532;BME280;23787;52.180;5.288;2022-08-04T04:47:31;101020.0;;;20.8;100.0
31532;BME280;23787;52.180;5.288;2022-08-04T05:02:35;101030.0;;;20.9;100.0
31532;BME280;23787;52.180;5.288;2022-08-04T05:07:36;101040.0;;;21.2;100.0
31532;BME280;23787;52.180;5.288;2022-08-04T05:12:32;101040.0;;;21.6;100.0
31532;BME280;23787;52.180;5.288;2022-08-04T05:17:30;101030.0;;;21.8;100.0
31532;BME280;23787;52.180;5.288;2022-08-04T05:27:29;101040.0;;;22.1;100.0
31532;BME280;23787;52.180;5.288;2022-08-04T05:32:31;101040.0;;;22.2;100.0
31532;BME280;23787;52.180;5.288;2022-08-04T05:37:29;101030.0;;;22.3;100.0
31532;BME280;23787;52.180;5.288;2022-08-04T05:42:28;101040.0;;;22.5;100.0
31532;BME280;23787;52.180;5.288;2022-08-04T05:47:29;101040.0;;;22.7;100.0
31532;BME280;23787;52.180;5.288;2022-08-04T05:52:29;101040.0;;;22.9;100.0
31532;BME280;23787;52.180;5.288;2022-08-04T05:57:28;101030.0;;;23.1;100.0
31532;BME280;23787;52.180;5.288;2022-08-04T06:02:28;101020.0;;;23.3;100.0
31532;BME280;23787;52.180;5.288;2022-08-04T06:12:31;101030.0;;;23.6;100.0
31532;BME280;23787;52.180;5.288;2022-08-04T06:17:29;101030.0;;;23.5;100.0
31532;BME280;23787;52.180;5.288;2022-08-04T06:22:29;101020.0;;;23.8;100.0
31532;BME280;23787;52.180;5.288;2022-08-04T06:27:28;101030.0;;;24.0;100.0
31532;BME280;23787;52.180;5.288;2022-08-04T06:32:28;101030.0;;;24.1;100.0
31532;BME280;23787;52.180;5.288;2022-08-04T06:37:29;101030.0;;;24.2;100.0
31532;BME280;23787;52.180;5.288;2022-08-04T06:42:28;101030.0;;;24.4;100.0
31532;BME280;23787;52.180;5.288;2022-08-04T06:47:29;101040.0;;;25.4;100.0
31532;BME280;23787;52.180;5.288;2022-08-04T06:52:28;101030.0;;;25.6;100.0
31532;BME280;23787;52.180;5.288;2022-08-04T06:57:29;101040.0;;;25.3;100.0
31532;BME280;23787;52.180;5.288;2022-08-04T07:02:29;101040.0;;;25.4;100.0
31532;BME280;23787;52.180;5.288;2022-08-04T07:12:29;101040.0;;;25.9;100.0
31532;BME280;23787;52.180;5.288;2022-08-04T07:17:28;101050.0;;;26.8;100.0
31532;BME280;23787;52.180;5.288;2022-08-04T07:27:28;101050.0;;;27.1;100.0
31532;BME280;23787;52.180;5.288;2022-08-04T07:32:28;101050.0;;;28.0;100.0
31532;BME280;23787;52.180;5.288;2022-08-04T07:37:28;101060.0;;;27.8;100.0
31532;BME280;23787;52.180;5.288;2022-08-04T07:42:28;101060.0;;;27.7;100.0
31532;BME280;23787;52.180;5.288;2022-08-04T07:47:28;101060.0;;;28.3;100.0
31532;BME280;23787;52.180;5.288;2022-08-04T07:52:28;101060.0;;;28.6;100.0
31532;BME280;23787;52.180;5.288;2022-08-04T08:02:29;101070.0;;;30.5;100.0
31532;BME280;23787;52.180;5.288;2022-08-04T08:07:28;101070.0;;;29.8;100.0
31532;BME280;23787;52.180;5.288;2022-08-04T08:12:28;101070.0;;;31.2;100.0
31532;BME280;23787;52.180;5.288;2022-08-04T08:17:28;101070.0;;;31.7;100.0
31532;BME280;23787;52.180;5.288;2022-08-04T08:22:29;101070.0;;;33.4;100.0
31532;BME280;23787;52.180;5.288;2022-08-04T08:27:28;101080.0;;;34.9;100.0
31532;BME280;23787;52.180;5.288;2022-08-04T08:32:28;101070.0;;;34.2;100.0
31532;BME280;23787;52.180;5.288;2022-08-04T08:37:29;101070.0;;;35.4;100.0
31532;BME280;23787;52.180;5.288;2022-08-04T08:42:31;101080.0;;;36.8;84.9
31532;BME280;23787;52.180;5.288;2022-08-04T08:47:34;101080.0;;;36.6;86.8
31532;BME280;23787;52.180;5.288;2022-08-04T08:52:31;101080.0;;;36.8;86.8
31532;BME280;23787;52.180;5.288;2022-08-04T08:57:33;101080.0;;;35.6;78.8
31532;BME280;23787;52.180;5.288;2022-08-04T09:02:33;101070.0;;;36.3;77.5
31532;BME280;23787;52.180;5.288;2022-08-04T09:07:36;101090.0;;;36.6;76.1
31532;BME280;23787;52.180;5.288;2022-08-04T09:12:30;101100.0;;;37.0;72.4
31532;BME280;23787;52.180;5.288;2022-08-04T09:22:32;101100.0;;;37.2;70.3
31532;BME280;23787;52.180;5.288;2022-08-04T09:27:30;101100.0;;;38.0;61.2
31532;BME280;23787;52.180;5.288;2022-08-04T09:32:31;101090.0;;;38.9;60.1
31532;BME280;23787;52.180;5.288;2022-08-04T09:37:31;101100.0;;;39.2;52.8
31532;BME280;23787;52.180;5.288;2022-08-04T09:42:33;101110.0;;;39.3;50.1
31532;BME280;23787;52.180;5.288;2022-08-04T09:47:30;101100.0;;;38.5;55.6
31532;BME280;23787;52.180;5.288;2022-08-04T09:52:31;101100.0;;;38.3;53.5
31532;BME280;23787;52.180;5.288;2022-08-04T09:57:34;101110.0;;;36.9;59.2
31532;BME280;23787;52.180;5.288;2022-08-04T10:02:30;101110.0;;;36.5;63.4
31532;BME280;23787;52.180;5.288;2022-08-04T10:07:36;101120.0;;;36.2;60.5
31532;BME280;23787;52.180;5.288;2022-08-04T10:12:30;101120.0;;;35.1;60.5
31532;BME280;23787;52.180;5.288;2022-08-04T10:17:30;101130.0;;;34.6;76.4
31532;BME280;23787;52.180;5.288;2022-08-04T10:22:30;101140.0;;;34.5;78.2
31532;BME280;23787;52.180;5.288;2022-08-04T10:27:31;101140.0;;;33.6;86.0
31532;BME280;23787;52.180;5.288;2022-08-04T10:32:32;101160.0;;;32.9;86.1
31532;BME280;23787;52.180;5.288;2022-08-04T10:37:30;101160.0;;;31.5;96.2
31532;BME280;23787;52.180;5.288;2022-08-04T10:42:28;101170.0;;;31.0;98.8
31532;BME280;23787;52.180;5.288;2022-08-04T10:47:31;101150.0;;;30.6;100.0
31532;BME280;23787;52.180;5.288;2022-08-04T10:52:30;101160.0;;;30.5;100.0
31532;BME280;23787;52.180;5.288;2022-08-04T10:57:31;101180.0;;;30.4;100.0
31532;BME280;23787;52.180;5.288;2022-08-04T11:02:33;101170.0;;;29.8;100.0
31532;BME280;23787;52.180;5.288;2022-08-04T11:07:29;101180.0;;;29.6;100.0
31532;BME280;23787;52.180;5.288;2022-08-04T11:12:29;101180.0;;;29.1;100.0
31532;BME280;23787;52.180;5.288;2022-08-04T11:17:30;101190.0;;;28.7;100.0
31532;BME280;23787;52.180;5.288;2022-08-04T11:22:29;101190.0;;;29.1;100.0
31532;BME280;23787;52.180;5.288;2022-08-04T11:27:33;101180.0;;;31.2;100.0
31532;BME280;23787;52.180;5.288;2022-08-04T11:32:31;101180.0;;;32.0;98.6
31532;BME280;23787;52.180;5.288;2022-08-04T11:37:33;101180.0;;;33.6;86.6
31532;BME280;23787;52.180;5.288;2022-08-04T11:42:29;101160.0;;;33.7;73.6
31532;BME280;23787;52.180;5.288;2022-08-04T11:47:29;101160.0;;;33.2;75.2
31532;BME280;23787;52.180;5.288;2022-08-04T11:52:29;101170.0;;;33.3;71.7
31532;BME280;23787;52.180;5.288;2022-08-04T11:57:29;101170.0;;;33.8;71.7
31532;BME280;23787;52.180;5.288;2022-08-04T12:02:33;101170.0;;;34.5;73.3
31532;BME280;23787;52.180;5.288;2022-08-04T12:12:31;101160.0;;;34.9;60.7
31532;BME280;23787;52.180;5.288;2022-08-04T12:17:30;101160.0;;;34.0;68.5
31532;BME280;23787;52.180;5.288;2022-08-04T12:22:31;101160.0;;;34.1;68.5
31532;BME280;23787;52.180;5.288;2022-08-04T12:27:30;101170.0;;;35.7;67.2
31532;BME280;23787;52.180;5.288;2022-08-04T12:32:30;101190.0;;;35.1;61.7
31532;BME280;23787;52.180;5.288;2022-08-04T12:37:34;101190.0;;;35.4;61.7
31532;BME280;23787;52.180;5.288;2022-08-04T12:42:32;101180.0;;;36.2;66.6
31532;BME280;23787;52.180;5.288;2022-08-04T12:47:29;101180.0;;;34.7;59.2
31532;BME280;23787;52.180;5.288;2022-08-04T12:52:29;101180.0;;;34.0;59.2
31532;BME280;23787;52.180;5.288;2022-08-04T12:57:29;101180.0;;;34.9;61.5
31532;BME280;23787;52.180;5.288;2022-08-04T13:02:29;101180.0;;;34.6;60.3
31532;BME280;23787;52.180;5.288;2022-08-04T13:07:34;101180.0;;;35.3;60.3
31532;BME280;23787;52.180;5.288;2022-08-04T13:12:29;101180.0;;;35.8;57.8
31532;BME280;23787;52.180;5.288;2022-08-04T13:22:29;101180.0;;;35.5;54.9
31532;BME280;23787;52.180;5.288;2022-08-04T13:27:29;101180.0;;;36.6;54.9
31532;BME280;23787;52.180;5.288;2022-08-04T13:32:29;101180.0;;;35.2;58.6
31532;BME280;23787;52.180;5.288;2022-08-04T13:37:29;101180.0;;;35.4;58.6
31532;BME280;23787;52.180;5.288;2022-08-04T13:42:29;101180.0;;;34.4;57.8
31532;BME280;23787;52.180;5.288;2022-08-04T13:52:29;101190.0;;;35.0;58.2
31532;BME280;23787;52.180;5.288;2022-08-04T13:57:30;101190.0;;;34.6;61.5
31532;BME280;23787;52.180;5.288;2022-08-04T14:02:30;101190.0;;;33.7;61.5
31532;BME280;23787;52.180;5.288;2022-08-04T14:07:29;101180.0;;;32.2;68.7
31532;BME280;23787;52.180;5.288;2022-08-04T14:12:29;101190.0;;;31.1;69.8
31532;BME280;23787;52.180;5.288;2022-08-04T14:17:29;101180.0;;;31.9;78.8
31532;BME280;23787;52.180;5.288;2022-08-04T14:22:30;101180.0;;;32.3;77.4
31532;BME280;23787;52.180;5.288;2022-08-04T14:27:30;101180.0;;;32.7;74.2
31532;BME280;23787;52.180;5.288;2022-08-04T14:32:29;101190.0;;;31.9;75.4
31532;BME280;23787;52.180;5.288;2022-08-04T14:37:29;101190.0;;;31.4;76.4
31532;BME280;23787;52.180;5.288;2022-08-04T14:42:38;101180.0;;;30.6;82.8
31532;BME280;23787;52.180;5.288;2022-08-04T14:52:29;101190.0;;;30.6;86.5
31532;BME280;23787;52.180;5.288;2022-08-04T14:57:29;101200.0;;;30.1;83.3
31532;BME280;23787;52.180;5.288;2022-08-04T15:02:29;101200.0;;;30.3;86.4
31532;BME280;23787;52.180;5.288;2022-08-04T15:07:29;101210.0;;;30.6;82.8
31532;BME280;23787;52.180;5.288;2022-08-04T15:12:29;101210.0;;;29.8;82.8
31532;BME280;23787;52.180;5.288;2022-08-04T15:17:29;101210.0;;;29.7;84.1
31532;BME280;23787;52.180;5.288;2022-08-04T15:22:29;101210.0;;;31.6;74.2
31532;BME280;23787;52.180;5.288;2022-08-04T15:27:29;101210.0;;;30.7;73.5
31532;BME280;23787;52.180;5.288;2022-08-04T15:32:29;101210.0;;;31.4;73.5
31532;BME280;23787;52.180;5.288;2022-08-04T15:37:30;101210.0;;;30.4;81.1
31532;BME280;23787;52.180;5.288;2022-08-04T15:42:30;101210.0;;;29.3;79.6
31532;BME280;23787;52.180;5.288;2022-08-04T15:47:29;101220.0;;;31.1;86.9
31532;BME280;23787;52.180;5.288;2022-08-04T15:52:29;101220.0;;;30.6;81.4
31532;BME280;23787;52.180;5.288;2022-08-04T16:02:35;101220.0;;;30.1;79.2
31532;BME280;23787;52.180;5.288;2022-08-04T16:17:29;101230.0;;;29.4;89.0
31532;BME280;23787;52.180;5.288;2022-08-04T16:22:31;101240.0;;;28.7;90.4
31532;BME280;23787;52.180;5.288;2022-08-04T16:32:35;101230.0;;;28.4;95.1
31532;BME280;23787;52.180;5.288;2022-08-04T16:37:31;101240.0;;;28.3;98.2
31532;BME280;23787;52.180;5.288;2022-08-04T16:42:30;101240.0;;;27.6;98.2
31532;BME280;23787;52.180;5.288;2022-08-04T16:52:29;101240.0;;;27.8;100.0
31532;BME280;23787;52.180;5.288;2022-08-04T16:57:29;101240.0;;;27.1;100.0
31532;BME280;23787;52.180;5.288;2022-08-04T17:02:29;101240.0;;;26.7;100.0
31532;BME280;23787;52.180;5.288;2022-08-04T17:07:29;101240.0;;;27.0;100.0
31532;BME280;23787;52.180;5.288;2022-08-04T17:12:29;101240.0;;;26.7;100.0
31532;BME280;23787;52.180;5.288;2022-08-04T17:22:29;101240.0;;;27.1;100.0
31532;BME280;23787;52.180;5.288;2022-08-04T17:27:29;101240.0;;;26.2;100.0
31532;BME280;23787;52.180;5.288;2022-08-04T17:32:29;101240.0;;;26.8;100.0
31532;BME280;23787;52.180;5.288;2022-08-04T17:37:29;101240.0;;;26.0;100.0
31532;BME280;23787;52.180;5.288;2022-08-04T17:42:29;101240.0;;;25.8;100.0
31532;BME280;23787;52.180;5.288;2022-08-04T17:52:29;101250.0;;;26.1;100.0
31532;BME280;23787;52.180;5.288;2022-08-04T17:57:29;101250.0;;;25.6;100.0
31532;BME280;23787;52.180;5.288;2022-08-04T18:02:30;101260.0;;;25.0;100.0
31532;BME280;23787;52.180;5.288;2022-08-04T18:07:33;101260.0;;;25.1;100.0
31532;BME280;23787;52.180;5.288;2022-08-04T18:12:29;101270.0;;;25.8;100.0
31532;BME280;23787;52.180;5.288;2022-08-04T18:17:30;101270.0;;;25.5;100.0
31532;BME280;23787;52.180;5.288;2022-08-04T18:22:29;101270.0;;;25.7;100.0
31532;BME280;23787;52.180;5.288;2022-08-04T18:27:29;101280.0;;;25.5;100.0
31532;BME280;23787;52.180;5.288;2022-08-04T18:32:29;101280.0;;;25.4;100.0
31532;BME280;23787;52.180;5.288;2022-08-04T18:37:29;101290.0;;;24.5;100.0
31532;BME280;23787;52.180;5.288;2022-08-04T18:42:29;101280.0;;;25.2;100.0
31532;BME280;23787;52.180;5.288;2022-08-04T18:47:29;101280.0;;;24.9;100.0
31532;BME280;23787;52.180;5.288;2022-08-04T18:52:29;101300.0;;;23.7;100.0
31532;BME280;23787;52.180;5.288;2022-08-04T18:57:29;101300.0;;;24.4;100.0
31532;BME280;23787;52.180;5.288;2022-08-04T19:07:29;101330.0;;;24.3;100.0
31532;BME280;23787;52.180;5.288;2022-08-04T19:12:29;101330.0;;;24.0;100.0
31532;BME280;23787;52.180;5.288;2022-08-04T19:22:29;101350.0;;;24.1;100.0
31532;BME280;23787;52.180;5.288;2022-08-04T19:27:29;101340.0;;;23.3;100.0
31532;BME280;23787;52.180;5.288;2022-08-04T19:37:29;101350.0;;;23.7;100.0
31532;BME280;23787;52.180;5.288;2022-08-04T19:47:29;101350.0;;;22.9;100.0
31532;BME280;23787;52.180;5.288;2022-08-04T19:52:29;101350.0;;;23.0;100.0
31532;BME280;23787;52.180;5.288;2022-08-04T19:57:29;101360.0;;;22.9;100.0
31532;BME280;23787;52.180;5.288;2022-08-04T20:02:29;101360.0;;;22.6;100.0
31532;BME280;23787;52.180;5.288;2022-08-04T20:12:29;101370.0;;;22.5;100.0
31532;BME280;23787;52.180;5.288;2022-08-04T20:17:29;101370.0;;;22.7;100.0
31532;BME280;23787;52.180;5.288;2022-08-04T20:22:29;101370.0;;;22.5;100.0
31532;BME280;23787;52.180;5.288;2022-08-04T20:27:29;101380.0;;;22.2;100.0
31532;BME280;23787;52.180;5.288;2022-08-04T20:32:29;101390.0;;;22.4;100.0
31532;BME280;23787;52.180;5.288;2022-08-04T20:42:29;101380.0;;;21.8;100.0
31532;BME280;23787;52.180;5.288;2022-08-04T20:47:29;101400.0;;;21.9;100.0
31532;BME280;23787;52.180;5.288;2022-08-04T20:52:29;101410.0;;;22.4;100.0
31532;BME280;23787;52.180;5.288;2022-08-04T20:57:29;101410.0;;;21.9;100.0
31532;BME280;23787;52.180;5.288;2022-08-04T21:12:29;101430.0;;;22.0;100.0
31532;BME280;23787;52.180;5.288;2022-08-04T21:17:29;101410.0;;;21.5;100.0
31532;BME280;23787;52.180;5.288;2022-08-04T21:22:29;101410.0;;;21.6;100.0
31532;BME280;23787;52.180;5.288;2022-08-04T21:27:29;101420.0;;;21.5;100.0
31532;BME280;23787;52.180;5.288;2022-08-04T21:32:29;101420.0;;;21.4;100.0
31532;BME280;23787;52.180;5.288;2022-08-04T21:37:29;101420.0;;;21.6;100.0
31532;BME280;23787;52.180;5.288;2022-08-04T21:42:29;101420.0;;;21.4;100.0
31532;BME280;23787;52.180;5.288;2022-08-04T21:47:29;101420.0;;;21.2;100.0
31532;BME280;23787;52.180;5.288;2022-08-04T21:52:29;101420.0;;;21.4;100.0
31532;BME280;23787;52.180;5.288;2022-08-04T21:57:29;101420.0;;;21.2;100.0
31532;BME280;23787;52.180;5.288;2022-08-04T22:02:29;101400.0;;;21.4;100.0
31532;BME280;23787;52.180;5.288;2022-08-04T22:07:29;101400.0;;;20.9;100.0
31532;BME280;23787;52.180;5.288;2022-08-04T22:12:29;101390.0;;;21.0;100.0
31532;BME280;23787;52.180;5.288;2022-08-04T22:17:29;101380.0;;;20.9;100.0
31532;BME280;23787;52.180;5.288;2022-08-04T22:22:32;101370.0;;;21.0;100.0
31532;BME280;23787;52.180;5.288;2022-08-04T22:32:29;101360.0;;;21.1;100.0
31532;BME280;23787;52.180;5.288;2022-08-04T22:37:29;101370.0;;;21.0;100.0
31532;BME280;23787;52.180;5.288;2022-08-04T22:42:29;101380.0;;;20.8;100.0
31532;BME280;23787;52.180;5.288;2022-08-04T22:47:29;101380.0;;;21.2;100.0
31532;BME280;23787;52.180;5.288;2022-08-04T22:52:29;101390.0;;;21.3;100.0
31532;BME280;23787;52.180;5.288;2022-08-04T22:57:29;101370.0;;;20.8;100.0
31532;BME280;23787;52.180;5.288;2022-08-04T23:02:29;101370.0;;;21.0;100.0
31532;BME280;23787;52.180;5.288;2022-08-04T23:07:29;101340.0;;;20.7;100.0
31532;BME280;23787;52.180;5.288;2022-08-04T23:12:29;101330.0;;;21.0;100.0
31532;BME280;23787;52.180;5.288;2022-08-04T23:17:29;101330.0;;;20.7;100.0
31532;BME280;23787;52.180;5.288;2022-08-04T23:22:29;101340.0;;;21.0;100.0
31532;BME280;23787;52.180;5.288;2022-08-04T23:27:33;101360.0;;;20.7;100.0
31532;BME280;23787;52.180;5.288;2022-08-04T23:32:29;101370.0;;;20.8;100.0
31532;BME280;23787;52.180;5.288;2022-08-04T23:37:29;101370.0;;;20.7;100.0
31532;BME280;23787;52.180;5.288;2022-08-04T23:42:29;101380.0;;;20.5;100.0
31532;BME280;23787;52.180;5.288;2022-08-04T23:47:29;101380.0;;;20.4;100.0
31532;BME280;23787;52.180;5.288;2022-08-04T23:52:29;101380.0;;;20.7;100.0
31532;BME280;23787;52.180;5.288;2022-08-04T23:57:29;101390.0;;;20.6;100.0
